Tutti
Tyagarah Airport (Tyagarah, New South Wales) YTYH Meteo
There is no TAF data available at YTYH. Showing TAF data for YBNA (17 mi S).
Previsione area Terminal BNK (nessun dato per YTYH)
| Date | Time (AEST) | Flight Rules | Wind Dir. | Speed | Type | Height AGL (ft) | Visibility | Remarks | ||||||
|---|---|---|---|---|---|---|---|---|---|---|---|---|---|---|
| 04-set | 15:00 | VFR | 180° | 8 kt | Clouds and Visibility are OK | >= 6 miles | ||||||||
| 04-set | 14:00 | VFR | 180° | 8 kt | Clouds and Visibility are OK | >= 6 miles | ||||||||
| 04-set | 13:00 | VFR | 180° | 8 kt | Clouds and Visibility are OK | >= 6 miles | ||||||||
| 04-set | 12:00 | VFR | 180° | 8 kt | Clouds and Visibility are OK | >= 6 miles | ||||||||
| 04-set | 11:00 | VFR | 180° | 8 kt | Clouds and Visibility are OK | >= 6 miles | ||||||||
| 04-set | 10:00 | VFR | 180° | 8 kt | Clouds and Visibility are OK | >= 6 miles | ||||||||
| 04-set | 09:00 | VFR | 180° | 8 kt | Clouds and Visibility are OK | >= 6 miles | ||||||||
There is no METAR data available at YTYH. Showing METAR data for YBNA (17 mi S).
Storico METAR BNK recente (nessun dato per YTYH)
| Date | Time (AEST) | Flight Rules | Wind Dir. | Speed | Type | Height AGL (ft) | Visibility | Temp (°C) | Temp (°F) | Dew Point (°C) | Dew Point (°F) | Rel. Humid. | Pressure | Density Altitude | Remarks |
|---|---|---|---|---|---|---|---|---|---|---|---|---|---|---|---|
| 04-set | 09:00 | VFR | 200° | 9 kt | 10000 meters | 24° | 75° | 17° | 62° | 65% | 1021 mb | 857 ft | |||
| 04-set | 08:30 | VFR | 210° | 7 kt | 10000 meters | 23° | 73° | 18° | 64° | 73% | 1020 mb | 766 ft | |||
| 04-set | 08:00 | VFR | 240° | 5 kt | 10000 meters | 21° | 69° | 17° | 62° | 78% | 1020 mb | 526 ft | |||
| 04-set | 07:30 | VFR | 250° | 4 kt | 10000 meters | 19° | 66° | 18° | 64° | 94% | 1020 mb | 286 ft | |||
| 04-set | 07:00 | VFR | 250° | 1 kt | 10000 meters | 16° | 60° | 16° | 60° | 100% | 1019 mb | -44 ft | |||
| 04-set | 06:30 | VFR | Calm | 10000 meters | 13° | 55° | 13° | 55° | 100% | 1019 mb | -404 ft | ||||
| 04-set | 06:00 | VFR | Calm | 10000 meters | 13° | 55° | 12° | 53° | 94% | 1019 mb | -404 ft | ||||
| 04-set | 05:30 | VFR | Calm | 10000 meters | 12° | 53° | 12° | 53° | 100% | 1018 mb | -495 ft | ||||
| 04-set | 05:00 | VFR | 250° | 1 kt | 10000 meters | 13° | 55° | 12° | 53° | 94% | 1018 mb | -375 ft | |||
| 04-set | 04:30 | VFR | Calm | 10000 meters | 13° | 55° | 12° | 53° | 94% | 1018 mb | -375 ft | ||||
| 04-set | 04:00 | VFR | Calm | 10000 meters | 13° | 55° | 13° | 55° | 100% | 1017 mb | -345 ft | ||||
| 04-set | 03:30 | VFR | Calm | 10000 meters | 14° | 57° | 13° | 55° | 94% | 1017 mb | -225 ft | ||||
| 04-set | 03:00 | VFR | 250° | 3 kt | 10000 meters | 15° | 59° | 13° | 55° | 88% | 1017 mb | -105 ft | |||
| 04-set | 02:30 | VFR | 250° | 4 kt | 10000 meters | 14° | 57° | 12° | 53° | 88% | 1017 mb | -225 ft | |||
| 04-set | 02:00 | VFR | 250° | 4 kt | 10000 meters | 15° | 59° | 12° | 53° | 82% | 1017 mb | -105 ft | |||
| 04-set | 01:30 | VFR | 160° | 5 kt | 10000 meters | 17° | 62° | 15° | 59° | 88% | 1017 mb | 135 ft | |||
| 04-set | 01:00 | VFR | Calm | 10000 meters | 15° | 59° | 14° | 57° | 94% | 1017 mb | -105 ft | ||||
| 04-set | 00:30 | VFR | Calm | 10000 meters | 16° | 60° | 13° | 55° | 82% | 1017 mb | 15 ft | ||||
| 04-set | 00:00 | VFR | Calm | 10000 meters | 17° | 62° | 14° | 57° | 82% | 1016 mb | 165 ft | ||||
| 03-set | 23:30 | VFR | 360° | 3 kt | 10000 meters | 18° | 64° | 15° | 59° | 83% | 1016 mb | 285 ft | |||
| 03-set | 23:00 | VFR | Calm | 10000 meters | 17° | 62° | 14° | 57° | 82% | 1016 mb | 165 ft | ||||
| 03-set | 22:30 | VFR | Calm | 10000 meters | 18° | 64° | 15° | 59° | 83% | 1016 mb | 285 ft | ||||
| 03-set | 22:00 | VFR | 10° | 2 kt | 10000 meters | 18° | 64° | 14° | 57° | 77% | 1016 mb | 285 ft | |||
| 03-set | 21:30 | VFR | 10° | 4 kt | 10000 meters | 19° | 66° | 13° | 55° | 68% | 1016 mb | 405 ft |
Accedi
| Il tuo browser non è supportato. fai l'upgrade del tuo browser |
